createdAt,value
2022-11-13T00:00:01.382Z,0.00
2022-11-13T00:01:01.373Z,0.00
2022-11-13T00:02:01.357Z,0.00
2022-11-13T00:03:01.359Z,0.00
2022-11-13T00:04:01.326Z,0.00
2022-11-13T00:05:01.326Z,0.00
2022-11-13T00:06:01.427Z,0.00
2022-11-13T00:07:01.392Z,0.00
2022-11-13T00:08:01.316Z,0.00
2022-11-13T00:09:01.285Z,0.00
2022-11-13T00:10:01.270Z,0.00
2022-11-13T00:11:01.291Z,0.00
2022-11-13T00:12:01.254Z,0.00
2022-11-13T00:13:01.231Z,0.00
2022-11-13T00:14:01.235Z,0.00
2022-11-13T00:15:01.207Z,0.00
2022-11-13T00:16:01.213Z,0.00
2022-11-13T00:17:01.181Z,0.00
2022-11-13T00:18:01.185Z,0.00
2022-11-13T00:19:01.170Z,0.00
2022-11-13T00:20:01.180Z,0.00
2022-11-13T00:21:01.160Z,0.00
2022-11-13T00:22:01.262Z,0.00
2022-11-13T00:23:01.120Z,0.00
2022-11-13T00:24:01.131Z,0.00
2022-11-13T00:25:01.108Z,0.00
2022-11-13T00:26:01.093Z,0.00
2022-11-13T00:27:01.118Z,0.00
2022-11-13T00:28:01.073Z,0.00
2022-11-13T00:29:01.063Z,0.00
2022-11-13T00:30:01.057Z,0.00
2022-11-13T00:31:01.042Z,0.00
2022-11-13T00:32:01.026Z,0.00
2022-11-13T00:33:01.039Z,0.00
2022-11-13T00:35:02.000Z,0.00
2022-11-13T00:36:01.001Z,0.00
2022-11-13T00:37:00.966Z,0.00
2022-11-13T00:38:01.082Z,0.00
2022-11-13T00:39:00.954Z,0.00
2022-11-13T00:40:00.944Z,0.00
2022-11-13T00:41:00.954Z,0.00
2022-11-13T00:42:00.912Z,0.00
2022-11-13T00:43:00.899Z,0.00
2022-11-13T00:44:00.919Z,0.00
2022-11-13T00:45:00.889Z,0.00
2022-11-13T00:46:00.882Z,0.00
2022-11-13T00:47:00.866Z,0.00
2022-11-13T00:48:00.848Z,0.00
2022-11-13T00:49:00.837Z,0.00
2022-11-13T00:50:00.896Z,0.00
2022-11-13T00:51:00.814Z,0.00
2022-11-13T00:52:00.814Z,0.00
2022-11-13T00:53:00.785Z,0.00
2022-11-13T00:54:00.898Z,0.00
2022-11-13T00:55:00.789Z,0.00
2022-11-13T00:56:00.763Z,0.00
2022-11-13T00:57:00.751Z,0.00
2022-11-13T00:58:00.820Z,0.00
2022-11-13T00:59:00.721Z,0.00
2022-11-13T01:00:00.727Z,0.00
2022-11-13T01:01:00.712Z,0.00
2022-11-13T01:02:00.727Z,0.00
2022-11-13T01:03:00.683Z,0.00
2022-11-13T01:04:00.671Z,0.00
2022-11-13T01:05:00.669Z,0.00
2022-11-13T01:06:00.652Z,0.00
2022-11-13T01:07:00.721Z,0.00
2022-11-13T01:08:00.620Z,0.00
2022-11-13T01:09:00.628Z,0.00
2022-11-13T01:10:00.720Z,0.00
2022-11-13T01:11:00.597Z,0.00
2022-11-13T01:12:00.590Z,0.00
2022-11-13T01:13:00.577Z,0.00
2022-11-13T01:14:00.566Z,0.00
2022-11-13T01:15:00.551Z,0.00
2022-11-13T01:16:00.554Z,0.00
2022-11-13T01:17:00.538Z,0.00
2022-11-13T01:18:00.508Z,0.00
2022-11-13T01:19:00.499Z,0.00
2022-11-13T01:20:00.490Z,0.00
2022-11-13T01:21:00.479Z,0.00
2022-11-13T01:22:00.466Z,0.00
2022-11-13T01:23:00.464Z,0.00
2022-11-13T01:24:00.455Z,0.00
2022-11-13T01:25:00.440Z,0.00
2022-11-13T01:26:00.552Z,0.00
2022-11-13T01:27:00.413Z,0.00
2022-11-13T01:28:00.436Z,0.00
2022-11-13T01:29:00.392Z,0.00
2022-11-13T01:30:00.380Z,0.00
2022-11-13T01:31:00.373Z,0.00
2022-11-13T01:32:00.380Z,0.00
2022-11-13T01:33:00.362Z,0.00
2022-11-13T01:34:00.355Z,0.00
2022-11-13T01:35:00.347Z,0.00
2022-11-13T01:36:00.320Z,0.00
2022-11-13T01:37:00.345Z,0.00
2022-11-13T01:38:00.304Z,0.00
2022-11-13T01:39:00.279Z,0.00
2022-11-13T01:40:00.272Z,0.00
2022-11-13T01:41:00.258Z,0.00
2022-11-13T01:42:00.379Z,0.00
2022-11-13T01:43:00.263Z,0.00
2022-11-13T01:44:00.230Z,0.00
2022-11-13T01:45:00.223Z,0.00
2022-11-13T01:46:00.219Z,0.00
2022-11-13T01:47:00.201Z,0.00
2022-11-13T01:48:00.193Z,0.00
2022-11-13T01:49:00.203Z,0.00
2022-11-13T01:50:00.158Z,0.00
2022-11-13T01:51:00.158Z,0.00
2022-11-13T01:52:00.155Z,0.00
2022-11-13T01:53:00.130Z,0.00
2022-11-13T01:54:00.120Z,0.00
2022-11-13T01:55:00.138Z,0.00
2022-11-13T01:56:00.104Z,0.00
2022-11-13T01:57:00.096Z,0.00
2022-11-13T01:58:00.206Z,0.00
2022-11-13T01:59:00.070Z,0.00
2022-11-13T02:00:00.070Z,0.00
2022-11-13T02:01:00.057Z,0.00
2022-11-13T02:02:00.082Z,0.00
2022-11-13T02:03:00.042Z,0.00
2022-11-13T02:04:00.034Z,0.00
2022-11-13T02:05:00.022Z,0.00
2022-11-13T02:06:00.000Z,0.00
2022-11-13T02:07:00.026Z,0.00
2022-11-13T02:07:59.962Z,0.00
2022-11-13T02:08:59.959Z,0.00
2022-11-13T02:09:59.988Z,0.00
2022-11-13T02:10:59.934Z,0.00
2022-11-13T02:11:59.938Z,0.00
2022-11-13T02:12:59.912Z,0.00
2022-11-13T02:14:00.018Z,0.00
2022-11-13T02:14:59.900Z,0.00
2022-11-13T02:15:59.902Z,0.00
2022-11-13T02:16:59.864Z,0.00
2022-11-13T02:17:59.869Z,0.00
2022-11-13T02:18:59.850Z,0.00
2022-11-13T02:19:59.833Z,0.00
2022-11-13T02:20:59.822Z,0.00
2022-11-13T02:21:59.830Z,0.00
2022-11-13T02:22:59.822Z,0.00
2022-11-13T02:23:59.787Z,0.00
2022-11-13T02:24:59.780Z,0.00
2022-11-13T02:25:59.767Z,0.00
2022-11-13T02:26:59.759Z,0.00
2022-11-13T02:27:59.769Z,0.00
2022-11-13T02:28:59.744Z,0.00
2022-11-13T02:29:59.842Z,0.00
2022-11-13T02:30:59.727Z,0.00
2022-11-13T02:31:59.703Z,0.00
2022-11-13T02:32:59.696Z,0.00
2022-11-13T02:33:59.676Z,0.00
2022-11-13T02:34:59.669Z,0.00
2022-11-13T02:35:59.688Z,0.00
2022-11-13T02:36:59.651Z,0.00
2022-11-13T02:37:59.647Z,0.00
2022-11-13T02:38:59.661Z,0.00
2022-11-13T02:39:59.618Z,0.00
2022-11-13T02:40:59.620Z,0.00
2022-11-13T02:41:59.588Z,0.00
2022-11-13T02:42:59.586Z,0.00
2022-11-13T02:43:59.579Z,0.00
2022-11-13T02:44:59.563Z,0.00
2022-11-13T02:45:59.675Z,0.00
2022-11-13T02:46:59.540Z,0.00
2022-11-13T02:47:59.536Z,0.00
2022-11-13T02:48:59.524Z,0.00
2022-11-13T02:49:59.508Z,0.00
2022-11-13T02:50:59.492Z,0.00
2022-11-13T02:51:59.477Z,0.00
2022-11-13T02:52:59.560Z,0.00
2022-11-13T02:53:59.464Z,0.00
2022-11-13T02:54:59.477Z,0.00
2022-11-13T02:55:59.450Z,0.00
2022-11-13T02:56:59.441Z,0.00
2022-11-13T02:57:59.414Z,0.00
2022-11-13T02:58:59.436Z,0.00
2022-11-13T02:59:59.400Z,0.00
2022-11-13T03:00:59.380Z,0.00
2022-11-13T03:01:59.517Z,0.00
2022-11-13T03:02:59.371Z,0.00
2022-11-13T03:03:59.371Z,0.00
2022-11-13T03:05:14.752Z,0.00
2022-11-13T03:06:00.333Z,0.00
2022-11-13T03:06:59.368Z,0.00
2022-11-13T03:07:59.315Z,0.00
2022-11-13T03:08:59.323Z,0.00
2022-11-13T03:09:59.296Z,0.00
2022-11-13T03:10:59.286Z,0.00
2022-11-13T03:11:59.277Z,0.00
2022-11-13T03:12:59.274Z,0.00
2022-11-13T03:13:59.234Z,0.00
2022-11-13T03:14:59.233Z,0.00
2022-11-13T03:15:59.224Z,0.00
2022-11-13T03:16:59.215Z,0.00
2022-11-13T03:17:59.321Z,0.00
2022-11-13T03:18:59.186Z,0.00
2022-11-13T03:19:59.181Z,0.00
2022-11-13T03:20:59.166Z,0.00
2022-11-13T03:21:59.158Z,0.00
2022-11-13T03:22:59.140Z,0.00
2022-11-13T03:23:59.130Z,0.00
2022-11-13T03:24:59.150Z,0.00
2022-11-13T03:25:59.131Z,0.00
2022-11-13T03:26:59.139Z,0.00
2022-11-13T03:27:59.085Z,0.00
2022-11-13T03:28:59.086Z,0.00
2022-11-13T03:29:59.067Z,0.00
2022-11-13T03:30:59.078Z,0.00
2022-11-13T03:31:59.062Z,0.00
2022-11-13T03:32:59.049Z,0.00
2022-11-13T03:33:59.137Z,0.00
2022-11-13T03:34:59.007Z,0.00
2022-11-13T03:35:59.012Z,0.00
2022-11-13T03:36:58.988Z,0.00
2022-11-13T03:37:58.973Z,0.00
2022-11-13T03:38:58.975Z,0.00
2022-11-13T03:39:58.957Z,0.00
2022-11-13T03:40:58.965Z,0.00
2022-11-13T03:41:58.952Z,0.00
2022-11-13T03:42:58.923Z,0.00
2022-11-13T03:43:58.913Z,0.00
2022-11-13T03:44:58.926Z,0.00
2022-11-13T03:45:58.898Z,0.00
2022-11-13T03:46:58.898Z,0.00
2022-11-13T03:47:58.876Z,0.00
2022-11-13T03:48:58.877Z,0.00
2022-11-13T03:49:58.976Z,0.00
2022-11-13T03:50:58.844Z,0.00
2022-11-13T03:51:58.825Z,0.00
2022-11-13T03:52:58.814Z,0.00
2022-11-13T03:53:58.826Z,0.00
2022-11-13T03:54:58.790Z,0.00
2022-11-13T03:55:58.846Z,0.00
2022-11-13T03:56:58.762Z,0.00
2022-11-13T03:57:58.793Z,0.00
2022-11-13T03:58:58.748Z,0.00
2022-11-13T03:59:58.739Z,0.00
2022-11-13T04:00:58.727Z,0.00
2022-11-13T04:01:58.762Z,0.00
2022-11-13T04:02:58.704Z,0.00
2022-11-13T04:03:58.685Z,0.00
2022-11-13T04:04:58.675Z,0.00
2022-11-13T04:05:58.782Z,0.00
2022-11-13T04:06:58.723Z,0.00
2022-11-13T04:07:58.662Z,0.00
2022-11-13T04:08:58.636Z,0.00
2022-11-13T04:09:58.640Z,0.00
2022-11-13T04:10:58.622Z,0.00
2022-11-13T04:11:58.617Z,0.00
2022-11-13T04:12:58.603Z,0.00
2022-11-13T04:13:58.605Z,0.00
2022-11-13T04:14:58.588Z,0.00
2022-11-13T04:15:58.563Z,0.00
2022-11-13T04:16:58.552Z,0.00
2022-11-13T04:17:58.532Z,0.00
2022-11-13T04:18:58.549Z,0.00
2022-11-13T04:19:58.516Z,0.00
2022-11-13T04:20:58.496Z,0.00
2022-11-13T04:21:58.603Z,0.00
2022-11-13T04:22:58.506Z,0.00
2022-11-13T04:23:58.472Z,0.00
2022-11-13T04:24:58.454Z,0.00
2022-11-13T04:25:58.454Z,0.00
2022-11-13T04:26:58.442Z,0.00
2022-11-13T04:27:58.430Z,0.00
2022-11-13T04:28:58.439Z,0.00
2022-11-13T04:29:58.425Z,0.00
2022-11-13T04:30:58.389Z,0.00
2022-11-13T04:31:58.391Z,0.00
2022-11-13T04:32:58.384Z,0.00
2022-11-13T04:33:58.365Z,0.00
2022-11-13T04:34:58.362Z,0.00
2022-11-13T04:35:58.354Z,0.00
2022-11-13T04:36:58.356Z,0.00
2022-11-13T04:37:58.351Z,0.00
2022-11-13T04:38:58.308Z,0.00
2022-11-13T04:39:58.309Z,0.00
2022-11-13T04:40:58.281Z,0.00
2022-11-13T04:41:58.300Z,0.00
2022-11-13T04:42:58.279Z,0.00
2022-11-13T04:43:58.252Z,0.00
2022-11-13T04:44:58.255Z,0.00
2022-11-13T04:45:58.232Z,0.00
2022-11-13T04:46:58.224Z,0.00
2022-11-13T04:47:58.209Z,0.00
2022-11-13T04:48:58.205Z,0.00
2022-11-13T04:49:58.182Z,0.00
2022-11-13T04:50:58.179Z,0.00
2022-11-13T04:51:58.164Z,0.00
2022-11-13T04:52:58.182Z,0.00
2022-11-13T04:53:58.263Z,0.00
2022-11-13T04:54:58.164Z,0.00
2022-11-13T04:55:58.140Z,0.00
2022-11-13T04:56:58.111Z,0.00
2022-11-13T04:57:58.108Z,0.00
2022-11-13T04:58:58.091Z,0.00
2022-11-13T04:59:58.074Z,0.00
2022-11-13T05:00:58.067Z,0.00
2022-11-13T05:01:58.125Z,0.00
2022-11-13T05:02:58.057Z,0.00
2022-11-13T05:03:58.033Z,0.00
2022-11-13T05:05:03.350Z,0.00
2022-11-13T05:05:59.046Z,0.00
2022-11-13T05:06:58.032Z,0.00
2022-11-13T05:07:57.999Z,0.00
2022-11-13T05:08:57.980Z,0.00
2022-11-13T05:09:58.078Z,0.00
2022-11-13T05:10:57.971Z,0.00
2022-11-13T05:11:57.940Z,0.00
2022-11-13T05:12:57.932Z,0.00
2022-11-13T05:14:03.019Z,0.00
2022-11-13T05:14:58.925Z,0.00
2022-11-13T05:15:57.903Z,0.00
2022-11-13T05:16:57.882Z,0.00
2022-11-13T05:17:57.878Z,0.00
2022-11-13T05:18:57.871Z,0.00
2022-11-13T05:19:57.871Z,0.00
2022-11-13T05:20:57.889Z,0.00
2022-11-13T05:21:57.834Z,0.00
2022-11-13T05:22:57.827Z,0.00
2022-11-13T05:23:57.828Z,0.00
2022-11-13T05:24:57.825Z,0.00
2022-11-13T05:25:57.913Z,0.00
2022-11-13T05:26:57.788Z,0.00
2022-11-13T05:27:57.769Z,0.00
2022-11-13T05:28:57.757Z,0.00
2022-11-13T05:29:57.752Z,0.00
2022-11-13T05:30:57.754Z,0.00
2022-11-13T05:31:57.732Z,0.00
2022-11-13T05:32:57.742Z,0.00
2022-11-13T05:34:02.573Z,0.00
2022-11-13T05:34:58.695Z,0.00
2022-11-13T05:35:57.676Z,0.00
2022-11-13T05:36:57.679Z,0.00
2022-11-13T05:37:57.682Z,0.00
2022-11-13T05:38:57.664Z,0.00
2022-11-13T05:39:57.642Z,0.00
2022-11-13T05:40:57.685Z,0.00
2022-11-13T05:41:57.726Z,0.00
2022-11-13T05:42:57.597Z,0.00
2022-11-13T05:43:59.643Z,0.00
2022-11-13T05:44:57.581Z,0.00
2022-11-13T05:45:57.567Z,0.00
2022-11-13T05:46:57.583Z,0.00
2022-11-13T05:47:57.560Z,0.00
2022-11-13T05:48:57.538Z,0.00
2022-11-13T05:49:57.535Z,0.00
2022-11-13T05:50:57.516Z,0.00
2022-11-13T05:51:57.518Z,0.00
2022-11-13T05:52:57.491Z,0.00
2022-11-13T05:53:57.495Z,0.00
2022-11-13T05:54:57.493Z,0.00
2022-11-13T05:55:57.474Z,0.00
2022-11-13T05:56:57.455Z,0.00
2022-11-13T05:57:57.566Z,0.00
2022-11-13T05:58:57.429Z,0.00
2022-11-13T05:59:57.423Z,0.00
2022-11-13T06:00:57.407Z,0.00
2022-11-13T06:01:57.437Z,0.00
2022-11-13T06:02:57.387Z,0.00
2022-11-13T06:03:57.398Z,0.00
2022-11-13T06:04:57.369Z,0.00
2022-11-13T06:05:57.353Z,0.00
2022-11-13T06:06:57.388Z,0.00
2022-11-13T06:07:57.333Z,4.00
2022-11-13T06:08:57.333Z,4.00
2022-11-13T06:09:57.323Z,0.00
2022-11-13T06:10:57.291Z,4.00
2022-11-13T06:11:57.288Z,4.00
2022-11-13T06:12:57.276Z,4.00
2022-11-13T06:13:57.319Z,4.00
2022-11-13T06:14:57.268Z,4.00
2022-11-13T06:15:57.256Z,4.00
2022-11-13T06:16:57.230Z,8.00
2022-11-13T06:17:57.235Z,8.00
2022-11-13T06:18:57.228Z,12.00
2022-11-13T06:19:57.220Z,12.00
2022-11-13T06:20:57.202Z,16.00
2022-11-13T06:21:57.174Z,16.00
2022-11-13T06:22:57.182Z,20.00
2022-11-13T06:23:57.159Z,24.00
2022-11-13T06:24:57.138Z,28.00
2022-11-13T06:25:57.171Z,36.00
2022-11-13T06:26:57.113Z,44.00
2022-11-13T06:27:57.119Z,52.00
2022-11-13T06:28:57.107Z,60.00
2022-11-13T06:29:57.207Z,68.00
2022-11-13T06:30:57.075Z,80.00
2022-11-13T06:31:57.059Z,96.00
2022-11-13T06:32:57.086Z,108.00
2022-11-13T06:33:57.060Z,124.00
2022-11-13T06:34:57.039Z,140.00
2022-11-13T06:35:57.040Z,160.00
2022-11-13T06:36:57.008Z,180.00
2022-11-13T06:37:57.056Z,204.00
2022-11-13T06:38:57.024Z,228.00
2022-11-13T06:39:56.989Z,256.00
2022-11-13T06:40:56.979Z,284.00
2022-11-13T06:41:56.957Z,316.00
2022-11-13T06:42:56.947Z,348.00
2022-11-13T06:44:02.074Z,384.00
2022-11-13T06:44:57.949Z,416.00
2022-11-13T06:45:57.033Z,460.00
2022-11-13T06:46:56.900Z,500.00
2022-11-13T06:47:56.891Z,544.00
2022-11-13T06:48:56.896Z,592.00
2022-11-13T06:49:56.893Z,636.00
2022-11-13T06:50:56.867Z,684.00
2022-11-13T06:51:56.843Z,732.00
2022-11-13T06:52:56.843Z,784.00
2022-11-13T06:53:56.844Z,832.00
2022-11-13T06:54:56.817Z,880.00
2022-11-13T06:55:56.839Z,932.00
2022-11-13T06:56:56.798Z,980.00
2022-11-13T06:57:56.786Z,1008.00
2022-11-13T06:58:56.802Z,1068.00
2022-11-13T06:59:56.766Z,1100.00
2022-11-13T07:00:56.865Z,1140.00
2022-11-13T07:01:56.855Z,1196.00
2022-11-13T07:02:56.754Z,1232.00
2022-11-13T07:03:56.727Z,1296.00
2022-11-13T07:04:56.708Z,1368.00
2022-11-13T07:05:56.702Z,1428.00
2022-11-13T07:06:56.777Z,1476.00
2022-11-13T07:07:56.670Z,1528.00
2022-11-13T07:08:56.692Z,1588.00
2022-11-13T07:09:56.650Z,1648.00
2022-11-13T07:10:56.644Z,1700.00
2022-11-13T07:11:56.637Z,1764.00
2022-11-13T07:12:56.618Z,1812.00
2022-11-13T07:13:56.635Z,1872.00
2022-11-13T07:14:56.599Z,1928.00
2022-11-13T07:15:56.592Z,1992.00
2022-11-13T07:17:09.282Z,2040.00
2022-11-13T07:17:57.708Z,2096.00
2022-11-13T07:18:56.557Z,2144.00
2022-11-13T07:19:56.568Z,2200.00
2022-11-13T07:20:56.531Z,2256.00
2022-11-13T07:21:56.535Z,2304.00
2022-11-13T07:22:56.504Z,2344.00
2022-11-13T07:23:56.512Z,2388.00
2022-11-13T07:24:56.480Z,2432.00
2022-11-13T07:25:56.495Z,2476.00
2022-11-13T07:26:56.466Z,2516.00
2022-11-13T07:27:56.456Z,2544.00
2022-11-13T07:28:56.442Z,2588.00
2022-11-13T07:30:00.852Z,2624.00
2022-11-13T07:30:57.412Z,2676.00
2022-11-13T07:31:56.403Z,2724.00
2022-11-13T07:32:56.390Z,2756.00
2022-11-13T07:33:56.511Z,2796.00
2022-11-13T07:34:56.390Z,2812.00
2022-11-13T07:35:56.375Z,2868.00
2022-11-13T07:36:56.359Z,2900.00
2022-11-13T07:37:56.355Z,2944.00
2022-11-13T07:39:00.118Z,2984.00
2022-11-13T07:39:56.318Z,3048.00
2022-11-13T07:40:56.312Z,3088.00
2022-11-13T07:41:56.324Z,3164.00
2022-11-13T07:42:56.289Z,3192.00
2022-11-13T07:43:56.289Z,3240.00
2022-11-13T07:44:56.274Z,3284.00
2022-11-13T07:45:56.252Z,3316.00
2022-11-13T07:46:56.263Z,3356.00
2022-11-13T07:47:56.258Z,3380.00
2022-11-13T07:48:56.246Z,3408.00
2022-11-13T07:50:03.398Z,3440.00
2022-11-13T07:50:57.207Z,3472.00
2022-11-13T07:51:56.196Z,3500.00
2022-11-13T07:52:56.191Z,3528.00
2022-11-13T07:53:56.172Z,3560.00
2022-11-13T07:54:56.202Z,3588.00
2022-11-13T07:55:56.141Z,3616.00
2022-11-13T07:56:56.138Z,3640.00
2022-11-13T07:57:56.130Z,3660.00
2022-11-13T07:58:56.113Z,3688.00
2022-11-13T07:59:56.117Z,3716.00
2022-11-13T08:00:56.127Z,3744.00
2022-11-13T08:01:56.072Z,3764.00
2022-11-13T08:02:56.068Z,3784.00
2022-11-13T08:03:56.079Z,3804.00
2022-11-13T08:04:56.067Z,3828.00
2022-11-13T08:05:56.145Z,3852.00
2022-11-13T08:06:56.088Z,3868.00
2022-11-13T08:07:56.010Z,3892.00
2022-11-13T08:08:56.005Z,3912.00
2022-11-13T08:09:55.986Z,3932.00
2022-11-13T08:10:56.001Z,3948.00
2022-11-13T08:11:55.970Z,3968.00
2022-11-13T08:12:55.964Z,3980.00
2022-11-13T08:13:55.968Z,3996.00
2022-11-13T08:14:55.940Z,4020.00
2022-11-13T08:15:55.930Z,4036.00
2022-11-13T08:16:55.952Z,4052.00
2022-11-13T08:17:55.900Z,4068.00
2022-11-13T08:18:55.917Z,4084.00
2022-11-13T08:19:55.883Z,4104.00
2022-11-13T08:20:55.878Z,4116.00
2022-11-13T08:21:55.984Z,4136.00
2022-11-13T08:22:55.861Z,4152.00
2022-11-13T08:23:55.831Z,4164.00
2022-11-13T08:24:55.823Z,4176.00
2022-11-13T08:25:55.847Z,4192.00
2022-11-13T08:26:55.808Z,4208.00
2022-11-13T08:27:55.792Z,4220.00
2022-11-13T08:28:55.793Z,4236.00
2022-11-13T08:29:55.789Z,4252.00
2022-11-13T08:30:55.764Z,4268.00
2022-11-13T08:31:55.761Z,4280.00
2022-11-13T08:32:55.741Z,4300.00
2022-11-13T08:33:55.747Z,4316.00
2022-11-13T08:34:55.722Z,4328.00
2022-11-13T08:35:55.710Z,4340.00
2022-11-13T08:36:55.698Z,4352.00
2022-11-13T08:37:55.800Z,4364.00
2022-11-13T08:38:55.677Z,4380.00
2022-11-13T08:39:55.656Z,4392.00
2022-11-13T08:40:55.651Z,4404.00
2022-11-13T08:41:55.646Z,4416.00
2022-11-13T08:42:55.640Z,4428.00
2022-11-13T08:43:55.622Z,4440.00
2022-11-13T08:44:55.618Z,4456.00
2022-11-13T08:45:55.615Z,4468.00
2022-11-13T08:46:55.601Z,4480.00
2022-11-13T08:47:55.568Z,4492.00
2022-11-13T08:48:55.569Z,4504.00
2022-11-13T08:49:55.569Z,4516.00
2022-11-13T08:50:55.551Z,4528.00
2022-11-13T08:51:55.550Z,4536.00
2022-11-13T08:52:55.520Z,4544.00
2022-11-13T08:53:55.691Z,4556.00
2022-11-13T08:54:55.491Z,4564.00
2022-11-13T08:55:55.487Z,4568.00
2022-11-13T08:56:57.875Z,4580.00
2022-11-13T08:57:55.467Z,4588.00
2022-11-13T08:58:55.458Z,4596.00
2022-11-13T08:59:55.453Z,4604.00
2022-11-13T09:00:55.438Z,4612.00
2022-11-13T09:01:55.433Z,4616.00
2022-11-13T09:02:55.413Z,4624.00
2022-11-13T09:03:55.519Z,4632.00
2022-11-13T09:04:55.449Z,4640.00
2022-11-13T09:05:55.387Z,4648.00
2022-11-13T09:06:55.460Z,4656.00
2022-11-13T09:07:55.348Z,4664.00
2022-11-13T09:08:55.347Z,4672.00
2022-11-13T09:09:55.463Z,4676.00
2022-11-13T09:10:55.315Z,4688.00
2022-11-13T09:11:55.335Z,4692.00
2022-11-13T09:12:55.293Z,4700.00
2022-11-13T09:13:55.292Z,4708.00
2022-11-13T09:14:55.299Z,4720.00
2022-11-13T09:15:55.274Z,4724.00
2022-11-13T09:16:55.252Z,4724.00
2022-11-13T09:17:55.272Z,4732.00
2022-11-13T09:18:55.227Z,4732.00
2022-11-13T09:19:55.230Z,4740.00
2022-11-13T09:20:55.208Z,4744.00
2022-11-13T09:21:55.210Z,4748.00
2022-11-13T09:22:55.193Z,4748.00
2022-11-13T09:23:55.172Z,4748.00
2022-11-13T09:24:55.164Z,4752.00
2022-11-13T09:25:55.296Z,4756.00
2022-11-13T09:26:55.172Z,4752.00
2022-11-13T09:27:55.168Z,4752.00
2022-11-13T09:28:55.132Z,4748.00
2022-11-13T09:29:55.864Z,4744.00
2022-11-13T09:30:55.097Z,4744.00
2022-11-13T09:31:55.109Z,4732.00
2022-11-13T09:32:55.082Z,4732.00
2022-11-13T09:33:55.084Z,4732.00
2022-11-13T09:34:55.072Z,4736.00
2022-11-13T09:35:55.070Z,4736.00
2022-11-13T09:36:55.031Z,4736.00
2022-11-13T09:37:55.034Z,4736.00
2022-11-13T09:38:55.018Z,4732.00
2022-11-13T09:39:54.998Z,4736.00
2022-11-13T09:40:54.991Z,4744.00
2022-11-13T09:41:55.094Z,4744.00
2022-11-13T09:42:54.963Z,4740.00
2022-11-13T09:43:59.534Z,4744.00
2022-11-13T09:44:54.949Z,4744.00
2022-11-13T09:45:54.929Z,4748.00
2022-11-13T09:46:54.921Z,4752.00
2022-11-13T09:47:54.918Z,4752.00
2022-11-13T09:48:54.914Z,4756.00
2022-11-13T09:49:54.909Z,4756.00
2022-11-13T09:50:54.892Z,4756.00
2022-11-13T09:51:54.874Z,4760.00
2022-11-13T09:52:54.879Z,4764.00
2022-11-13T09:53:54.854Z,4764.00
2022-11-13T09:54:54.850Z,4764.00
2022-11-13T09:55:54.827Z,4768.00
2022-11-13T09:56:54.818Z,4772.00
2022-11-13T09:57:54.927Z,4768.00
2022-11-13T09:58:54.802Z,4772.00
2022-11-13T09:59:54.785Z,4780.00
2022-11-13T10:00:54.835Z,4776.00
2022-11-13T10:01:54.789Z,4776.00
2022-11-13T10:02:54.757Z,4776.00
2022-11-13T10:04:01.416Z,4784.00
2022-11-13T10:04:55.720Z,4776.00
2022-11-13T10:05:54.720Z,4780.00
2022-11-13T10:06:54.853Z,4780.00
2022-11-13T10:07:54.696Z,4780.00
2022-11-13T10:08:54.709Z,4784.00
2022-11-13T10:09:54.681Z,4784.00
2022-11-13T10:10:55.914Z,4788.00
2022-11-13T10:11:54.671Z,4788.00
2022-11-13T10:12:54.654Z,4792.00
2022-11-13T10:13:54.759Z,4792.00
2022-11-13T10:14:54.631Z,4792.00
2022-11-13T10:15:54.612Z,4796.00
2022-11-13T10:16:54.598Z,4800.00
2022-11-13T10:17:56.767Z,4800.00
2022-11-13T10:18:54.584Z,4804.00
2022-11-13T10:19:54.584Z,4800.00
2022-11-13T10:20:54.556Z,4808.00
2022-11-13T10:22:07.741Z,4808.00
2022-11-13T10:22:55.539Z,4808.00
2022-11-13T10:23:54.518Z,4808.00
2022-11-13T10:24:54.568Z,4812.00
2022-11-13T10:25:54.510Z,4812.00
2022-11-13T10:26:54.494Z,4820.00
2022-11-13T10:27:54.514Z,4820.00
2022-11-13T10:28:54.547Z,4820.00
2022-11-13T10:29:54.584Z,4820.00
2022-11-13T10:30:54.450Z,4824.00
2022-11-13T10:31:54.443Z,4824.00
2022-11-13T10:32:54.417Z,4824.00
2022-11-13T10:33:54.421Z,4824.00
2022-11-13T10:34:54.398Z,4828.00
2022-11-13T10:35:54.406Z,4824.00
2022-11-13T10:36:54.377Z,4824.00
2022-11-13T10:37:54.384Z,4828.00
2022-11-13T10:38:54.354Z,4828.00
2022-11-13T10:39:54.344Z,4828.00
2022-11-13T10:40:54.345Z,4832.00
2022-11-13T10:41:54.333Z,4832.00
2022-11-13T10:42:54.308Z,4832.00
2022-11-13T10:43:54.310Z,4832.00
2022-11-13T10:44:54.291Z,4832.00
2022-11-13T10:45:54.415Z,4836.00
2022-11-13T10:46:54.281Z,4832.00
2022-11-13T10:48:04.176Z,4836.00
2022-11-13T10:48:55.256Z,4840.00
2022-11-13T10:49:54.232Z,4840.00
2022-11-13T10:50:54.285Z,4840.00
2022-11-13T10:51:54.230Z,4840.00
2022-11-13T10:52:54.209Z,4840.00
2022-11-13T10:53:54.192Z,4840.00
2022-11-13T10:54:54.187Z,4840.00
2022-11-13T10:55:54.175Z,4844.00
2022-11-13T10:56:54.169Z,4844.00
2022-11-13T10:57:56.486Z,4848.00
2022-11-13T10:58:54.148Z,4848.00
2022-11-13T10:59:54.136Z,4852.00
2022-11-13T11:00:54.151Z,4852.00
2022-11-13T11:01:54.232Z,4852.00
2022-11-13T11:02:54.122Z,4856.00
2022-11-13T11:03:54.089Z,4852.00
2022-11-13T11:04:54.077Z,4856.00
2022-11-13T11:05:54.066Z,4852.00
2022-11-13T11:07:19.048Z,4860.00
2022-11-13T11:07:55.086Z,4856.00
2022-11-13T11:08:54.043Z,4860.00
2022-11-13T11:09:54.015Z,4860.00
2022-11-13T11:10:54.011Z,4868.00
2022-11-13T11:11:53.997Z,4872.00
2022-11-13T11:12:54.002Z,4876.00
2022-11-13T11:13:53.974Z,4876.00
2022-11-13T11:14:53.977Z,4872.00
2022-11-13T11:15:53.949Z,4876.00
2022-11-13T11:16:53.957Z,4876.00
2022-11-13T11:17:54.047Z,4880.00
2022-11-13T11:18:53.931Z,4880.00
2022-11-13T11:19:53.915Z,4884.00
2022-11-13T11:20:53.908Z,4880.00
2022-11-13T11:21:53.898Z,4880.00
2022-11-13T11:22:53.872Z,4880.00
2022-11-13T11:23:56.268Z,4884.00
2022-11-13T11:24:53.862Z,4884.00
2022-11-13T11:25:53.846Z,4888.00
2022-11-13T11:26:53.832Z,4888.00
2022-11-13T11:27:53.820Z,4888.00
2022-11-13T11:28:53.815Z,4892.00
2022-11-13T11:29:53.817Z,4892.00
2022-11-13T11:30:53.792Z,4896.00
2022-11-13T11:31:53.794Z,4896.00
2022-11-13T11:32:53.775Z,4896.00
2022-11-13T11:33:53.875Z,4900.00
2022-11-13T11:34:58.830Z,4908.00
2022-11-13T11:35:54.758Z,4908.00
2022-11-13T11:36:53.732Z,4912.00
2022-11-13T11:37:53.708Z,4912.00
2022-11-13T11:38:53.713Z,4916.00
2022-11-13T11:39:53.693Z,4920.00
2022-11-13T11:40:53.683Z,4920.00
2022-11-13T11:41:53.665Z,4924.00
2022-11-13T11:42:53.669Z,4928.00
2022-11-13T11:43:53.650Z,4932.00
2022-11-13T11:44:53.641Z,4936.00
2022-11-13T11:45:53.636Z,4940.00
2022-11-13T11:46:53.618Z,4940.00
2022-11-13T11:47:53.615Z,4944.00
2022-11-13T11:48:53.590Z,4948.00
2022-11-13T11:49:53.700Z,4952.00
2022-11-13T11:50:53.585Z,4956.00
2022-11-13T11:51:53.557Z,4956.00
2022-11-13T11:52:53.563Z,4964.00
2022-11-13T11:53:53.541Z,4964.00
2022-11-13T11:54:53.542Z,4968.00
2022-11-13T11:55:53.519Z,4972.00
2022-11-13T11:56:53.513Z,4980.00
2022-11-13T11:57:53.493Z,4984.00
2022-11-13T11:58:53.478Z,4992.00
2022-11-13T11:59:53.486Z,4992.00
2022-11-13T12:00:53.460Z,5008.00
2022-11-13T12:01:53.456Z,5004.00
2022-11-13T12:02:53.431Z,5008.00
2022-11-13T12:03:53.426Z,5020.00
2022-11-13T12:04:53.454Z,5036.00
2022-11-13T12:05:53.516Z,5040.00
2022-11-13T12:06:53.504Z,5048.00
2022-11-13T12:07:53.388Z,5056.00
2022-11-13T12:08:53.370Z,5064.00
2022-11-13T12:09:53.355Z,5072.00
2022-11-13T12:10:53.354Z,5080.00
2022-11-13T12:11:53.333Z,5088.00
2022-11-13T12:12:53.319Z,5116.00
2022-11-13T12:13:53.309Z,5148.00
2022-11-13T12:14:53.306Z,5192.00
2022-11-13T12:15:53.289Z,5232.00
2022-11-13T12:16:53.299Z,5280.00
2022-11-13T12:17:53.266Z,5324.00
2022-11-13T12:18:53.282Z,5372.00
2022-11-13T12:19:53.251Z,5420.00
2022-11-13T12:20:53.236Z,5472.00
2022-11-13T12:21:53.340Z,5524.00
2022-11-13T12:22:53.214Z,5572.00
2022-11-13T12:23:53.196Z,5620.00
2022-11-13T12:24:53.196Z,5672.00
2022-11-13T12:25:53.180Z,5724.00
2022-11-13T12:26:53.171Z,5776.00
2022-11-13T12:27:53.175Z,5836.00
2022-11-13T12:28:53.157Z,5884.00
2022-11-13T12:29:53.129Z,5944.00
2022-11-13T12:30:53.126Z,6000.00
2022-11-13T12:31:53.106Z,6060.00
2022-11-13T12:32:53.093Z,6120.00
2022-11-13T12:33:56.930Z,6184.00
2022-11-13T12:34:54.154Z,6248.00
2022-11-13T12:35:53.059Z,6316.00
2022-11-13T12:36:53.065Z,6384.00
2022-11-13T12:37:53.163Z,6448.00
2022-11-13T12:38:53.033Z,6520.00
2022-11-13T12:39:53.015Z,6584.00
2022-11-13T12:40:53.012Z,6648.00
2022-11-13T12:41:52.999Z,6716.00